Aviation Digital Data Service (ADDS)

Output produced by METARs form (2345 UTC 02 September 2014)
found at http://www.aviationweather.gov/adds/metars/
 
KEWR 022340Z 0300/0406 23011G17KT P6SM SCT050 BKN250 
     FM030200 26012KT P6SM VCSH BKN050 BKN150 
     TEMPO 0302/0303 2SM TSRA BKN040CB 
     FM030500 29009KT P6SM SCT050 SCT150 
     FM031000 32010KT P6SM SCT250 
     FM031800 28008KT P6SM SKC